sensor_id;sensor_type;location;lat;lon;timestamp;temperature;humidity
16838;DHT22;19510;54.486;9.046;2023-11-21T00:01:18;9.20;99.90
16838;DHT22;19510;54.486;9.046;2023-11-21T00:03:43;9.20;99.90
16838;DHT22;19510;54.486;9.046;2023-11-21T00:06:09;9.00;99.90
16838;DHT22;19510;54.486;9.046;2023-11-21T00:08:36;9.00;99.90
16838;DHT22;19510;54.486;9.046;2023-11-21T00:11:01;9.00;99.90
16838;DHT22;19510;54.486;9.046;2023-11-21T00:13:28;9.00;99.90
16838;DHT22;19510;54.486;9.046;2023-11-21T00:15:53;8.90;99.90
16838;DHT22;19510;54.486;9.046;2023-11-21T00:18:21;9.00;99.90
16838;DHT22;19510;54.486;9.046;2023-11-21T00:20:46;8.90;99.90
16838;DHT22;19510;54.486;9.046;2023-11-21T00:23:12;8.90;99.90
16838;DHT22;19510;54.486;9.046;2023-11-21T00:25:37;8.90;99.90
16838;DHT22;19510;54.486;9.046;2023-11-21T00:28:03;8.90;99.90
16838;DHT22;19510;54.486;9.046;2023-11-21T00:30:30;8.90;99.90
16838;DHT22;19510;54.486;9.046;2023-11-21T00:32:56;8.80;99.90
16838;DHT22;19510;54.486;9.046;2023-11-21T00:35:22;8.70;99.90
16838;DHT22;19510;54.486;9.046;2023-11-21T00:37:47;8.70;99.90
16838;DHT22;19510;54.486;9.046;2023-11-21T00:40:15;8.80;99.90
16838;DHT22;19510;54.486;9.046;2023-11-21T00:42:41;8.80;99.90
16838;DHT22;19510;54.486;9.046;2023-11-21T00:45:08;8.70;99.90
16838;DHT22;19510;54.486;9.046;2023-11-21T00:47:33;8.70;99.90
16838;DHT22;19510;54.486;9.046;2023-11-21T00:49:59;8.60;99.90
16838;DHT22;19510;54.486;9.046;2023-11-21T00:52:25;8.60;99.90
16838;DHT22;19510;54.486;9.046;2023-11-21T00:54:51;8.60;99.90
16838;DHT22;19510;54.486;9.046;2023-11-21T00:57:17;8.50;99.90
16838;DHT22;19510;54.486;9.046;2023-11-21T00:59:42;8.50;99.90
16838;DHT22;19510;54.486;9.046;2023-11-21T01:02:08;8.60;99.90
16838;DHT22;19510;54.486;9.046;2023-11-21T01:04:36;8.60;99.90
16838;DHT22;19510;54.486;9.046;2023-11-21T01:07:01;8.60;99.90
16838;DHT22;19510;54.486;9.046;2023-11-21T01:09:27;8.60;99.90
16838;DHT22;19510;54.486;9.046;2023-11-21T01:11:53;8.50;99.90
16838;DHT22;19510;54.486;9.046;2023-11-21T01:14:19;8.60;99.90
16838;DHT22;19510;54.486;9.046;2023-11-21T01:16:45;8.60;99.90
16838;DHT22;19510;54.486;9.046;2023-11-21T01:19:11;8.50;99.90
16838;DHT22;19510;54.486;9.046;2023-11-21T01:21:36;8.50;99.90
16838;DHT22;19510;54.486;9.046;2023-11-21T01:24:02;8.50;99.90
16838;DHT22;19510;54.486;9.046;2023-11-21T01:26:29;8.50;99.90
16838;DHT22;19510;54.486;9.046;2023-11-21T01:28:54;8.50;99.90
16838;DHT22;19510;54.486;9.046;2023-11-21T01:31:20;8.50;99.90
16838;DHT22;19510;54.486;9.046;2023-11-21T01:33:46;8.50;99.90
16838;DHT22;19510;54.486;9.046;2023-11-21T01:36:12;8.50;99.90
16838;DHT22;19510;54.486;9.046;2023-11-21T01:38:37;8.50;99.90
16838;DHT22;19510;54.486;9.046;2023-11-21T01:41:03;8.50;99.90
16838;DHT22;19510;54.486;9.046;2023-11-21T01:43:30;8.50;99.90
16838;DHT22;19510;54.486;9.046;2023-11-21T01:45:57;8.50;99.90
16838;DHT22;19510;54.486;9.046;2023-11-21T01:48:24;8.50;99.90
16838;DHT22;19510;54.486;9.046;2023-11-21T01:50:50;8.50;99.90
16838;DHT22;19510;54.486;9.046;2023-11-21T01:53:16;8.50;99.90
16838;DHT22;19510;54.486;9.046;2023-11-21T01:55:42;8.50;99.90
16838;DHT22;19510;54.486;9.046;2023-11-21T01:58:09;8.50;99.90
16838;DHT22;19510;54.486;9.046;2023-11-21T02:00:37;8.50;99.90
16838;DHT22;19510;54.486;9.046;2023-11-21T02:03:04;8.50;99.90
16838;DHT22;19510;54.486;9.046;2023-11-21T02:05:29;8.50;99.90
16838;DHT22;19510;54.486;9.046;2023-11-21T02:07:55;8.50;99.90
16838;DHT22;19510;54.486;9.046;2023-11-21T02:10:22;8.50;99.90
16838;DHT22;19510;54.486;9.046;2023-11-21T02:12:50;8.50;99.90
16838;DHT22;19510;54.486;9.046;2023-11-21T02:15:17;8.50;99.90
16838;DHT22;19510;54.486;9.046;2023-11-21T02:17:47;8.50;99.90
16838;DHT22;19510;54.486;9.046;2023-11-21T02:20:20;8.40;99.90
16838;DHT22;19510;54.486;9.046;2023-11-21T02:22:50;8.50;99.90
16838;DHT22;19510;54.486;9.046;2023-11-21T02:25:21;8.50;99.90
16838;DHT22;19510;54.486;9.046;2023-11-21T02:27:48;8.50;99.90
16838;DHT22;19510;54.486;9.046;2023-11-21T02:30:15;8.50;99.90
16838;DHT22;19510;54.486;9.046;2023-11-21T02:32:41;8.50;99.90
16838;DHT22;19510;54.486;9.046;2023-11-21T02:35:08;8.50;99.90
16838;DHT22;19510;54.486;9.046;2023-11-21T02:37:34;8.50;99.90
16838;DHT22;19510;54.486;9.046;2023-11-21T02:40:01;8.60;99.90
16838;DHT22;19510;54.486;9.046;2023-11-21T02:42:29;8.60;99.90
16838;DHT22;19510;54.486;9.046;2023-11-21T02:44:55;8.50;99.90
16838;DHT22;19510;54.486;9.046;2023-11-21T02:47:22;8.50;99.90
16838;DHT22;19510;54.486;9.046;2023-11-21T02:49:48;8.50;99.90
16838;DHT22;19510;54.486;9.046;2023-11-21T02:52:14;8.50;99.90
16838;DHT22;19510;54.486;9.046;2023-11-21T02:54:40;8.40;99.90
16838;DHT22;19510;54.486;9.046;2023-11-21T02:57:05;8.40;99.90
16838;DHT22;19510;54.486;9.046;2023-11-21T02:59:31;8.50;99.90
16838;DHT22;19510;54.486;9.046;2023-11-21T03:01:57;8.50;99.90
16838;DHT22;19510;54.486;9.046;2023-11-21T03:04:22;8.30;99.90
16838;DHT22;19510;54.486;9.046;2023-11-21T03:06:48;8.30;99.90
16838;DHT22;19510;54.486;9.046;2023-11-21T03:09:14;8.40;99.90
16838;DHT22;19510;54.486;9.046;2023-11-21T03:11:39;8.40;99.90
16838;DHT22;19510;54.486;9.046;2023-11-21T03:14:05;8.40;99.90
16838;DHT22;19510;54.486;9.046;2023-11-21T03:16:32;8.40;99.90
16838;DHT22;19510;54.486;9.046;2023-11-21T03:18:58;8.40;99.90
16838;DHT22;19510;54.486;9.046;2023-11-21T03:21:24;8.40;99.90
16838;DHT22;19510;54.486;9.046;2023-11-21T03:23:51;8.40;99.90
16838;DHT22;19510;54.486;9.046;2023-11-21T03:26:18;8.40;99.90
16838;DHT22;19510;54.486;9.046;2023-11-21T03:28:43;8.40;99.90
16838;DHT22;19510;54.486;9.046;2023-11-21T03:31:09;8.40;99.90
16838;DHT22;19510;54.486;9.046;2023-11-21T03:33:35;8.50;99.90
16838;DHT22;19510;54.486;9.046;2023-11-21T03:36:01;8.40;99.90
16838;DHT22;19510;54.486;9.046;2023-11-21T03:38:27;8.50;99.90
16838;DHT22;19510;54.486;9.046;2023-11-21T03:40:52;8.50;99.90
16838;DHT22;19510;54.486;9.046;2023-11-21T03:43:18;8.60;99.90
16838;DHT22;19510;54.486;9.046;2023-11-21T03:45:44;8.50;99.90
16838;DHT22;19510;54.486;9.046;2023-11-21T03:48:12;8.50;99.90
16838;DHT22;19510;54.486;9.046;2023-11-21T03:50:38;8.50;99.90
16838;DHT22;19510;54.486;9.046;2023-11-21T03:53:04;8.50;99.90
16838;DHT22;19510;54.486;9.046;2023-11-21T03:55:30;8.50;99.90
16838;DHT22;19510;54.486;9.046;2023-11-21T03:57:57;8.50;99.90
16838;DHT22;19510;54.486;9.046;2023-11-21T04:00:23;8.50;99.90
16838;DHT22;19510;54.486;9.046;2023-11-21T04:02:49;8.40;99.90
16838;DHT22;19510;54.486;9.046;2023-11-21T04:05:17;8.50;99.90
16838;DHT22;19510;54.486;9.046;2023-11-21T04:07:42;8.30;99.90
16838;DHT22;19510;54.486;9.046;2023-11-21T04:10:08;8.40;99.90
16838;DHT22;19510;54.486;9.046;2023-11-21T04:12:37;8.50;99.90
16838;DHT22;19510;54.486;9.046;2023-11-21T04:15:04;8.50;99.90
16838;DHT22;19510;54.486;9.046;2023-11-21T04:17:29;8.50;99.90
16838;DHT22;19510;54.486;9.046;2023-11-21T04:19:56;8.50;99.90
16838;DHT22;19510;54.486;9.046;2023-11-21T04:22:22;8.50;99.90
16838;DHT22;19510;54.486;9.046;2023-11-21T04:24:47;8.50;99.90
16838;DHT22;19510;54.486;9.046;2023-11-21T04:27:14;8.50;99.90
16838;DHT22;19510;54.486;9.046;2023-11-21T04:29:39;8.50;99.90
16838;DHT22;19510;54.486;9.046;2023-11-21T04:32:06;8.60;99.90
16838;DHT22;19510;54.486;9.046;2023-11-21T04:34:33;8.50;99.90
16838;DHT22;19510;54.486;9.046;2023-11-21T04:37:00;8.50;99.90
16838;DHT22;19510;54.486;9.046;2023-11-21T04:39:26;8.50;99.90
16838;DHT22;19510;54.486;9.046;2023-11-21T04:41:52;8.50;99.90
16838;DHT22;19510;54.486;9.046;2023-11-21T04:44:18;8.50;99.90
16838;DHT22;19510;54.486;9.046;2023-11-21T04:46:43;8.40;99.90
16838;DHT22;19510;54.486;9.046;2023-11-21T04:49:09;8.40;99.90
16838;DHT22;19510;54.486;9.046;2023-11-21T04:51:36;8.40;99.90
16838;DHT22;19510;54.486;9.046;2023-11-21T04:54:02;8.40;99.90
16838;DHT22;19510;54.486;9.046;2023-11-21T04:56:27;8.40;99.90
16838;DHT22;19510;54.486;9.046;2023-11-21T04:58:54;8.40;99.90
16838;DHT22;19510;54.486;9.046;2023-11-21T05:01:19;8.40;99.90
16838;DHT22;19510;54.486;9.046;2023-11-21T05:03:45;8.40;99.90
16838;DHT22;19510;54.486;9.046;2023-11-21T05:06:12;8.40;99.90
16838;DHT22;19510;54.486;9.046;2023-11-21T05:08:39;8.40;99.90
16838;DHT22;19510;54.486;9.046;2023-11-21T05:11:05;8.40;99.90
16838;DHT22;19510;54.486;9.046;2023-11-21T05:13:35;8.40;99.90
16838;DHT22;19510;54.486;9.046;2023-11-21T05:16:01;8.40;99.90
16838;DHT22;19510;54.486;9.046;2023-11-21T05:18:32;8.40;99.90
16838;DHT22;19510;54.486;9.046;2023-11-21T05:21:00;8.40;99.90
16838;DHT22;19510;54.486;9.046;2023-11-21T05:23:26;8.30;99.90
16838;DHT22;19510;54.486;9.046;2023-11-21T05:25:52;8.30;99.90
16838;DHT22;19510;54.486;9.046;2023-11-21T05:28:17;8.40;99.90
16838;DHT22;19510;54.486;9.046;2023-11-21T05:30:43;8.50;99.90
16838;DHT22;19510;54.486;9.046;2023-11-21T05:33:09;8.40;99.90
16838;DHT22;19510;54.486;9.046;2023-11-21T05:35:35;8.40;99.90
16838;DHT22;19510;54.486;9.046;2023-11-21T05:38:01;8.40;99.90
16838;DHT22;19510;54.486;9.046;2023-11-21T05:40:26;8.40;99.90
16838;DHT22;19510;54.486;9.046;2023-11-21T05:42:55;8.30;99.90
16838;DHT22;19510;54.486;9.046;2023-11-21T05:45:21;8.30;99.90
16838;DHT22;19510;54.486;9.046;2023-11-21T05:47:47;8.30;99.90
16838;DHT22;19510;54.486;9.046;2023-11-21T05:50:15;8.40;99.90
16838;DHT22;19510;54.486;9.046;2023-11-21T05:52:43;8.40;99.90
16838;DHT22;19510;54.486;9.046;2023-11-21T05:55:09;8.40;99.90
16838;DHT22;19510;54.486;9.046;2023-11-21T05:57:36;8.40;99.90
16838;DHT22;19510;54.486;9.046;2023-11-21T06:00:04;8.40;99.90
16838;DHT22;19510;54.486;9.046;2023-11-21T06:02:37;8.40;99.90
16838;DHT22;19510;54.486;9.046;2023-11-21T06:05:03;8.40;99.90
16838;DHT22;19510;54.486;9.046;2023-11-21T06:07:29;8.40;99.90
16838;DHT22;19510;54.486;9.046;2023-11-21T06:09:55;8.40;99.90
16838;DHT22;19510;54.486;9.046;2023-11-21T06:12:21;8.40;99.90
16838;DHT22;19510;54.486;9.046;2023-11-21T06:14:46;8.40;99.90
16838;DHT22;19510;54.486;9.046;2023-11-21T06:17:13;8.40;99.90
16838;DHT22;19510;54.486;9.046;2023-11-21T06:19:39;8.40;99.90
16838;DHT22;19510;54.486;9.046;2023-11-21T06:22:05;8.40;99.90
16838;DHT22;19510;54.486;9.046;2023-11-21T06:24:31;8.40;99.90
16838;DHT22;19510;54.486;9.046;2023-11-21T06:26:57;8.30;99.90
16838;DHT22;19510;54.486;9.046;2023-11-21T06:29:23;8.30;99.90
16838;DHT22;19510;54.486;9.046;2023-11-21T06:31:49;8.30;99.90
16838;DHT22;19510;54.486;9.046;2023-11-21T06:34:14;8.30;99.90
16838;DHT22;19510;54.486;9.046;2023-11-21T06:36:40;8.30;99.90
16838;DHT22;19510;54.486;9.046;2023-11-21T06:39:06;8.30;99.90
16838;DHT22;19510;54.486;9.046;2023-11-21T06:41:34;8.30;99.90
16838;DHT22;19510;54.486;9.046;2023-11-21T06:44:00;8.30;99.90
16838;DHT22;19510;54.486;9.046;2023-11-21T06:46:25;8.30;99.90
16838;DHT22;19510;54.486;9.046;2023-11-21T06:48:51;8.30;99.90
16838;DHT22;19510;54.486;9.046;2023-11-21T06:51:17;8.20;99.90
16838;DHT22;19510;54.486;9.046;2023-11-21T06:53:43;8.20;99.90
16838;DHT22;19510;54.486;9.046;2023-11-21T06:56:18;8.20;99.90
16838;DHT22;19510;54.486;9.046;2023-11-21T06:58:45;8.20;99.90
16838;DHT22;19510;54.486;9.046;2023-11-21T07:01:12;8.20;99.90
16838;DHT22;19510;54.486;9.046;2023-11-21T07:03:39;8.20;99.90
16838;DHT22;19510;54.486;9.046;2023-11-21T07:06:05;8.10;99.90
16838;DHT22;19510;54.486;9.046;2023-11-21T07:08:31;8.20;99.90
16838;DHT22;19510;54.486;9.046;2023-11-21T07:10:56;8.20;99.90
16838;DHT22;19510;54.486;9.046;2023-11-21T07:13:22;8.20;99.90
16838;DHT22;19510;54.486;9.046;2023-11-21T07:15:49;8.30;99.90
16838;DHT22;19510;54.486;9.046;2023-11-21T07:18:14;8.30;99.90
16838;DHT22;19510;54.486;9.046;2023-11-21T07:20:40;8.30;99.90
16838;DHT22;19510;54.486;9.046;2023-11-21T07:23:05;8.20;99.90
16838;DHT22;19510;54.486;9.046;2023-11-21T07:25:32;8.20;99.90
16838;DHT22;19510;54.486;9.046;2023-11-21T07:27:59;8.20;99.90
16838;DHT22;19510;54.486;9.046;2023-11-21T07:30:26;8.30;99.90
16838;DHT22;19510;54.486;9.046;2023-11-21T07:32:51;8.40;99.90
16838;DHT22;19510;54.486;9.046;2023-11-21T07:35:17;8.30;99.90
16838;DHT22;19510;54.486;9.046;2023-11-21T07:37:43;8.30;99.90
16838;DHT22;19510;54.486;9.046;2023-11-21T07:40:09;8.30;99.90
16838;DHT22;19510;54.486;9.046;2023-11-21T07:42:37;8.30;99.90
16838;DHT22;19510;54.486;9.046;2023-11-21T07:45:04;8.30;99.90
16838;DHT22;19510;54.486;9.046;2023-11-21T07:47:29;8.30;99.90
16838;DHT22;19510;54.486;9.046;2023-11-21T07:49:55;8.30;99.90
16838;DHT22;19510;54.486;9.046;2023-11-21T07:52:23;8.30;99.90
16838;DHT22;19510;54.486;9.046;2023-11-21T07:54:49;8.30;99.90
16838;DHT22;19510;54.486;9.046;2023-11-21T07:57:16;8.30;99.90
16838;DHT22;19510;54.486;9.046;2023-11-21T07:59:41;8.30;99.90
16838;DHT22;19510;54.486;9.046;2023-11-21T08:02:07;8.40;99.90
16838;DHT22;19510;54.486;9.046;2023-11-21T08:04:33;8.30;99.90
16838;DHT22;19510;54.486;9.046;2023-11-21T08:07:01;8.40;99.90
16838;DHT22;19510;54.486;9.046;2023-11-21T08:09:27;8.40;99.90
16838;DHT22;19510;54.486;9.046;2023-11-21T08:11:52;8.40;99.90
16838;DHT22;19510;54.486;9.046;2023-11-21T08:14:22;8.40;99.90
16838;DHT22;19510;54.486;9.046;2023-11-21T08:16:47;8.30;99.90
16838;DHT22;19510;54.486;9.046;2023-11-21T08:19:13;8.30;99.90
16838;DHT22;19510;54.486;9.046;2023-11-21T08:21:39;8.30;99.90
16838;DHT22;19510;54.486;9.046;2023-11-21T08:24:08;8.30;99.90
16838;DHT22;19510;54.486;9.046;2023-11-21T08:26:36;8.30;99.90
16838;DHT22;19510;54.486;9.046;2023-11-21T08:29:02;8.30;99.90
16838;DHT22;19510;54.486;9.046;2023-11-21T08:31:28;8.30;99.90
16838;DHT22;19510;54.486;9.046;2023-11-21T08:33:55;8.30;99.90
16838;DHT22;19510;54.486;9.046;2023-11-21T08:36:26;8.30;99.90
16838;DHT22;19510;54.486;9.046;2023-11-21T08:38:52;8.40;99.90
16838;DHT22;19510;54.486;9.046;2023-11-21T08:41:18;8.30;99.90
16838;DHT22;19510;54.486;9.046;2023-11-21T08:43:48;8.40;99.90
16838;DHT22;19510;54.486;9.046;2023-11-21T08:46:14;8.40;99.90
16838;DHT22;19510;54.486;9.046;2023-11-21T08:48:41;8.30;99.90
16838;DHT22;19510;54.486;9.046;2023-11-21T08:51:09;8.40;99.90
16838;DHT22;19510;54.486;9.046;2023-11-21T08:53:35;8.40;99.90
16838;DHT22;19510;54.486;9.046;2023-11-21T08:56:01;8.30;99.90
16838;DHT22;19510;54.486;9.046;2023-11-21T08:58:27;8.40;99.90
16838;DHT22;19510;54.486;9.046;2023-11-21T09:00:53;8.40;99.90
16838;DHT22;19510;54.486;9.046;2023-11-21T09:03:18;8.50;99.90
16838;DHT22;19510;54.486;9.046;2023-11-21T09:05:44;8.40;99.90
16838;DHT22;19510;54.486;9.046;2023-11-21T09:08:10;8.30;99.90
16838;DHT22;19510;54.486;9.046;2023-11-21T09:10:36;8.40;99.90
16838;DHT22;19510;54.486;9.046;2023-11-21T09:13:02;8.40;99.90
16838;DHT22;19510;54.486;9.046;2023-11-21T09:15:28;8.40;99.90
16838;DHT22;19510;54.486;9.046;2023-11-21T09:17:54;8.40;99.90
16838;DHT22;19510;54.486;9.046;2023-11-21T09:20:19;8.40;99.90
16838;DHT22;19510;54.486;9.046;2023-11-21T09:22:48;8.40;99.90
16838;DHT22;19510;54.486;9.046;2023-11-21T09:25:14;8.40;99.90
16838;DHT22;19510;54.486;9.046;2023-11-21T09:27:40;8.40;99.90
16838;DHT22;19510;54.486;9.046;2023-11-21T09:30:07;8.40;99.90
16838;DHT22;19510;54.486;9.046;2023-11-21T09:32:37;8.40;99.90
16838;DHT22;19510;54.486;9.046;2023-11-21T09:35:04;8.50;99.90
16838;DHT22;19510;54.486;9.046;2023-11-21T09:37:31;8.50;99.90
16838;DHT22;19510;54.486;9.046;2023-11-21T09:39:57;8.50;99.90
16838;DHT22;19510;54.486;9.046;2023-11-21T09:42:55;8.40;99.90
16838;DHT22;19510;54.486;9.046;2023-11-21T09:45:28;8.40;99.90
16838;DHT22;19510;54.486;9.046;2023-11-21T09:47:55;8.40;99.90
16838;DHT22;19510;54.486;9.046;2023-11-21T09:50:21;8.50;99.90
16838;DHT22;19510;54.486;9.046;2023-11-21T09:55:14;8.40;99.90
16838;DHT22;19510;54.486;9.046;2023-11-21T09:57:44;8.40;99.90
16838;DHT22;19510;54.486;9.046;2023-11-21T10:00:11;8.40;99.90
16838;DHT22;19510;54.486;9.046;2023-11-21T10:02:38;8.50;99.90
16838;DHT22;19510;54.486;9.046;2023-11-21T10:05:06;8.50;99.90
16838;DHT22;19510;54.486;9.046;2023-11-21T10:07:35;8.50;99.90
16838;DHT22;19510;54.486;9.046;2023-11-21T10:10:01;8.50;99.90
16838;DHT22;19510;54.486;9.046;2023-11-21T10:12:28;8.40;99.90
16838;DHT22;19510;54.486;9.046;2023-11-21T10:14:58;8.50;99.90
16838;DHT22;19510;54.486;9.046;2023-11-21T10:17:28;8.50;99.90
16838;DHT22;19510;54.486;9.046;2023-11-21T10:20:02;8.50;99.90
16838;DHT22;19510;54.486;9.046;2023-11-21T10:22:31;8.40;99.90
16838;DHT22;19510;54.486;9.046;2023-11-21T10:24:57;8.40;99.90
16838;DHT22;19510;54.486;9.046;2023-11-21T10:27:23;8.50;99.90
16838;DHT22;19510;54.486;9.046;2023-11-21T10:29:51;8.50;99.90
16838;DHT22;19510;54.486;9.046;2023-11-21T10:32:17;8.50;99.90
16838;DHT22;19510;54.486;9.046;2023-11-21T10:34:42;8.60;99.90
16838;DHT22;19510;54.486;9.046;2023-11-21T10:37:12;8.70;99.90
16838;DHT22;19510;54.486;9.046;2023-11-21T10:39:39;8.70;99.90
16838;DHT22;19510;54.486;9.046;2023-11-21T10:42:08;8.70;99.90
16838;DHT22;19510;54.486;9.046;2023-11-21T10:44:34;8.70;99.90
16838;DHT22;19510;54.486;9.046;2023-11-21T10:47:00;8.70;99.90
16838;DHT22;19510;54.486;9.046;2023-11-21T10:49:27;8.70;99.90
16838;DHT22;19510;54.486;9.046;2023-11-21T10:51:56;8.80;99.90
16838;DHT22;19510;54.486;9.046;2023-11-21T10:54:25;8.80;99.90
16838;DHT22;19510;54.486;9.046;2023-11-21T10:57:00;8.80;99.90
16838;DHT22;19510;54.486;9.046;2023-11-21T10:59:28;8.80;99.90
16838;DHT22;19510;54.486;9.046;2023-11-21T11:01:57;8.90;99.90
16838;DHT22;19510;54.486;9.046;2023-11-21T11:04:25;8.90;99.90
16838;DHT22;19510;54.486;9.046;2023-11-21T11:06:57;8.90;99.90
16838;DHT22;19510;54.486;9.046;2023-11-21T11:09:27;9.00;99.90
16838;DHT22;19510;54.486;9.046;2023-11-21T11:11:53;9.10;99.90
16838;DHT22;19510;54.486;9.046;2023-11-21T11:14:20;9.20;99.90
16838;DHT22;19510;54.486;9.046;2023-11-21T11:16:54;9.20;99.90
16838;DHT22;19510;54.486;9.046;2023-11-21T11:19:20;9.10;99.90
16838;DHT22;19510;54.486;9.046;2023-11-21T11:29:59;9.10;99.90
16838;DHT22;19510;54.486;9.046;2023-11-21T11:35:36;9.10;99.90
16838;DHT22;19510;54.486;9.046;2023-11-21T11:38:06;9.10;99.90
16838;DHT22;19510;54.486;9.046;2023-11-21T11:40:46;9.10;99.90
16838;DHT22;19510;54.486;9.046;2023-11-21T11:43:12;9.00;99.90
16838;DHT22;19510;54.486;9.046;2023-11-21T11:45:38;9.00;99.90
16838;DHT22;19510;54.486;9.046;2023-11-21T11:48:10;9.00;99.90
16838;DHT22;19510;54.486;9.046;2023-11-21T11:50:50;9.00;99.90
16838;DHT22;19510;54.486;9.046;2023-11-21T11:53:26;9.00;99.90
16838;DHT22;19510;54.486;9.046;2023-11-21T11:58:43;9.00;99.90
16838;DHT22;19510;54.486;9.046;2023-11-21T12:01:11;9.00;99.90
16838;DHT22;19510;54.486;9.046;2023-11-21T12:03:37;9.00;99.90
16838;DHT22;19510;54.486;9.046;2023-11-21T12:06:05;9.00;99.90
16838;DHT22;19510;54.486;9.046;2023-11-21T12:08:32;8.90;99.90
16838;DHT22;19510;54.486;9.046;2023-11-21T12:10:58;8.90;99.90
16838;DHT22;19510;54.486;9.046;2023-11-21T12:13:24;8.90;99.90
16838;DHT22;19510;54.486;9.046;2023-11-21T12:15:50;8.80;99.90
16838;DHT22;19510;54.486;9.046;2023-11-21T12:18:16;8.90;99.90
16838;DHT22;19510;54.486;9.046;2023-11-21T12:20:41;8.80;99.90
16838;DHT22;19510;54.486;9.046;2023-11-21T12:23:08;8.80;99.90
16838;DHT22;19510;54.486;9.046;2023-11-21T12:25:37;8.80;99.90
16838;DHT22;19510;54.486;9.046;2023-11-21T12:28:04;8.80;99.90
16838;DHT22;19510;54.486;9.046;2023-11-21T12:30:33;8.80;99.90
16838;DHT22;19510;54.486;9.046;2023-11-21T12:33:02;8.80;99.90
16838;DHT22;19510;54.486;9.046;2023-11-21T12:35:29;8.90;99.90
16838;DHT22;19510;54.486;9.046;2023-11-21T12:37:56;8.90;99.90
16838;DHT22;19510;54.486;9.046;2023-11-21T12:40:25;8.90;99.90
16838;DHT22;19510;54.486;9.046;2023-11-21T12:42:59;8.90;99.90
16838;DHT22;19510;54.486;9.046;2023-11-21T12:45:27;8.90;99.90
16838;DHT22;19510;54.486;9.046;2023-11-21T12:48:03;9.00;99.90
16838;DHT22;19510;54.486;9.046;2023-11-21T12:50:34;8.90;99.90
16838;DHT22;19510;54.486;9.046;2023-11-21T12:53:09;8.90;99.90
16838;DHT22;19510;54.486;9.046;2023-11-21T12:55:37;8.90;99.90
16838;DHT22;19510;54.486;9.046;2023-11-21T12:58:07;8.90;99.90
16838;DHT22;19510;54.486;9.046;2023-11-21T13:00:40;8.80;99.90
16838;DHT22;19510;54.486;9.046;2023-11-21T13:03:08;8.70;99.90
16838;DHT22;19510;54.486;9.046;2023-11-21T13:05:39;8.70;99.90
16838;DHT22;19510;54.486;9.046;2023-11-21T13:08:08;8.60;99.90
16838;DHT22;19510;54.486;9.046;2023-11-21T13:10:36;8.60;99.90
16838;DHT22;19510;54.486;9.046;2023-11-21T13:13:12;8.50;99.90
16838;DHT22;19510;54.486;9.046;2023-11-21T13:15:47;8.50;99.90
16838;DHT22;19510;54.486;9.046;2023-11-21T13:18:14;8.50;99.90
16838;DHT22;19510;54.486;9.046;2023-11-21T13:20:40;8.50;99.90
16838;DHT22;19510;54.486;9.046;2023-11-21T13:23:10;8.60;99.90
16838;DHT22;19510;54.486;9.046;2023-11-21T13:25:42;8.60;99.90
16838;DHT22;19510;54.486;9.046;2023-11-21T13:28:08;8.50;99.90
16838;DHT22;19510;54.486;9.046;2023-11-21T13:30:36;8.60;99.90
16838;DHT22;19510;54.486;9.046;2023-11-21T13:33:07;8.60;99.90
16838;DHT22;19510;54.486;9.046;2023-11-21T13:35:35;8.70;99.90
16838;DHT22;19510;54.486;9.046;2023-11-21T13:38:21;8.60;99.90
16838;DHT22;19510;54.486;9.046;2023-11-21T13:40:50;8.60;99.90
16838;DHT22;19510;54.486;9.046;2023-11-21T13:43:19;8.60;99.90
16838;DHT22;19510;54.486;9.046;2023-11-21T13:45:47;8.60;99.90
16838;DHT22;19510;54.486;9.046;2023-11-21T13:48:17;8.60;99.90
16838;DHT22;19510;54.486;9.046;2023-11-21T13:50:50;8.50;99.90
16838;DHT22;19510;54.486;9.046;2023-11-21T13:53:36;8.50;99.90
16838;DHT22;19510;54.486;9.046;2023-11-21T13:56:04;8.50;99.90
16838;DHT22;19510;54.486;9.046;2023-11-21T13:58:30;8.50;99.90
16838;DHT22;19510;54.486;9.046;2023-11-21T14:01:14;8.50;99.90
16838;DHT22;19510;54.486;9.046;2023-11-21T14:03:49;8.40;99.90
16838;DHT22;19510;54.486;9.046;2023-11-21T14:06:22;8.40;99.90
16838;DHT22;19510;54.486;9.046;2023-11-21T14:08:52;8.40;99.90
16838;DHT22;19510;54.486;9.046;2023-11-21T14:11:22;8.40;99.90
16838;DHT22;19510;54.486;9.046;2023-11-21T14:13:50;8.30;99.90
16838;DHT22;19510;54.486;9.046;2023-11-21T14:16:16;8.30;99.90
16838;DHT22;19510;54.486;9.046;2023-11-21T14:18:43;8.30;99.90
16838;DHT22;19510;54.486;9.046;2023-11-21T14:21:21;8.30;99.90
16838;DHT22;19510;54.486;9.046;2023-11-21T14:23:47;8.20;99.90
16838;DHT22;19510;54.486;9.046;2023-11-21T14:26:14;8.20;99.90
16838;DHT22;19510;54.486;9.046;2023-11-21T14:28:42;8.20;99.90
16838;DHT22;19510;54.486;9.046;2023-11-21T14:31:08;8.20;99.90
16838;DHT22;19510;54.486;9.046;2023-11-21T14:33:40;8.20;99.90
16838;DHT22;19510;54.486;9.046;2023-11-21T14:36:07;8.20;99.90
16838;DHT22;19510;54.486;9.046;2023-11-21T14:38:36;8.10;99.90
16838;DHT22;19510;54.486;9.046;2023-11-21T14:41:06;8.10;99.90
16838;DHT22;19510;54.486;9.046;2023-11-21T14:43:37;8.00;99.90
16838;DHT22;19510;54.486;9.046;2023-11-21T14:46:04;8.00;99.90
16838;DHT22;19510;54.486;9.046;2023-11-21T14:48:34;8.00;99.90
16838;DHT22;19510;54.486;9.046;2023-11-21T14:51:11;8.00;99.90
16838;DHT22;19510;54.486;9.046;2023-11-21T14:53:59;8.00;99.90
16838;DHT22;19510;54.486;9.046;2023-11-21T14:56:32;8.00;99.90
16838;DHT22;19510;54.486;9.046;2023-11-21T14:59:00;7.90;99.90
16838;DHT22;19510;54.486;9.046;2023-11-21T15:01:32;8.00;99.90
16838;DHT22;19510;54.486;9.046;2023-11-21T15:04:20;8.00;99.90
16838;DHT22;19510;54.486;9.046;2023-11-21T15:07:08;8.00;99.90
16838;DHT22;19510;54.486;9.046;2023-11-21T15:09:34;7.90;99.90
16838;DHT22;19510;54.486;9.046;2023-11-21T15:12:07;7.90;99.90
16838;DHT22;19510;54.486;9.046;2023-11-21T15:14:43;7.80;99.90
16838;DHT22;19510;54.486;9.046;2023-11-21T15:17:14;7.80;99.90
16838;DHT22;19510;54.486;9.046;2023-11-21T15:19:53;7.80;99.90
16838;DHT22;19510;54.486;9.046;2023-11-21T15:22:20;7.80;99.90
16838;DHT22;19510;54.486;9.046;2023-11-21T15:24:45;7.70;99.90
16838;DHT22;19510;54.486;9.046;2023-11-21T15:27:15;7.80;99.90
16838;DHT22;19510;54.486;9.046;2023-11-21T15:29:44;7.80;99.90
16838;DHT22;19510;54.486;9.046;2023-11-21T15:32:11;7.80;99.90
16838;DHT22;19510;54.486;9.046;2023-11-21T15:34:38;7.80;99.90
16838;DHT22;19510;54.486;9.046;2023-11-21T15:37:05;7.80;99.90
16838;DHT22;19510;54.486;9.046;2023-11-21T15:39:33;7.70;99.90
16838;DHT22;19510;54.486;9.046;2023-11-21T15:42:02;7.80;99.90
16838;DHT22;19510;54.486;9.046;2023-11-21T15:44:30;7.80;99.90
16838;DHT22;19510;54.486;9.046;2023-11-21T15:46:59;7.80;99.90
16838;DHT22;19510;54.486;9.046;2023-11-21T15:49:25;7.70;99.90
16838;DHT22;19510;54.486;9.046;2023-11-21T15:51:53;7.80;99.90
16838;DHT22;19510;54.486;9.046;2023-11-21T15:54:20;7.80;99.90
16838;DHT22;19510;54.486;9.046;2023-11-21T15:56:50;7.80;99.90
16838;DHT22;19510;54.486;9.046;2023-11-21T15:59:18;7.70;99.90
16838;DHT22;19510;54.486;9.046;2023-11-21T16:01:46;7.80;99.90
16838;DHT22;19510;54.486;9.046;2023-11-21T16:04:14;7.80;99.90